sensor_id;sensor_type;location;lat;lon;timestamp;temperature;humidity
28438;DHT22;15667;52.376;9.708;2023-04-25T00:01:37;7.90;99.90
28438;DHT22;15667;52.376;9.708;2023-04-25T00:04:03;7.80;99.90
28438;DHT22;15667;52.376;9.708;2023-04-25T00:06:32;7.90;99.90
28438;DHT22;15667;52.376;9.708;2023-04-25T00:08:57;7.80;99.90
28438;DHT22;15667;52.376;9.708;2023-04-25T00:11:24;7.80;99.90
28438;DHT22;15667;52.376;9.708;2023-04-25T00:13:50;7.80;99.90
28438;DHT22;15667;52.376;9.708;2023-04-25T00:16:19;8.20;99.90
28438;DHT22;15667;52.376;9.708;2023-04-25T00:18:45;8.00;99.90
28438;DHT22;15667;52.376;9.708;2023-04-25T00:21:19;8.00;99.90
28438;DHT22;15667;52.376;9.708;2023-04-25T00:23:45;8.60;99.90
28438;DHT22;15667;52.376;9.708;2023-04-25T00:26:11;8.00;99.90
28438;DHT22;15667;52.376;9.708;2023-04-25T00:28:37;7.80;99.90
28438;DHT22;15667;52.376;9.708;2023-04-25T00:31:03;8.40;99.90
28438;DHT22;15667;52.376;9.708;2023-04-25T00:33:29;7.90;99.90
28438;DHT22;15667;52.376;9.708;2023-04-25T00:35:55;7.90;99.90
28438;DHT22;15667;52.376;9.708;2023-04-25T00:38:21;7.90;99.90
28438;DHT22;15667;52.376;9.708;2023-04-25T00:40:47;7.90;99.90
28438;DHT22;15667;52.376;9.708;2023-04-25T00:43:13;7.90;99.90
28438;DHT22;15667;52.376;9.708;2023-04-25T00:45:39;7.90;99.90
28438;DHT22;15667;52.376;9.708;2023-04-25T00:48:05;7.90;99.90
28438;DHT22;15667;52.376;9.708;2023-04-25T00:50:33;8.00;99.90
28438;DHT22;15667;52.376;9.708;2023-04-25T00:52:59;7.90;99.90
28438;DHT22;15667;52.376;9.708;2023-04-25T00:55:24;8.00;99.90
28438;DHT22;15667;52.376;9.708;2023-04-25T00:57:50;7.90;99.90
28438;DHT22;15667;52.376;9.708;2023-04-25T01:00:16;7.90;99.90
28438;DHT22;15667;52.376;9.708;2023-04-25T01:02:43;7.80;99.90
28438;DHT22;15667;52.376;9.708;2023-04-25T01:05:10;8.20;99.90
28438;DHT22;15667;52.376;9.708;2023-04-25T01:07:37;9.40;99.90
28438;DHT22;15667;52.376;9.708;2023-04-25T01:10:04;8.90;99.90
28438;DHT22;15667;52.376;9.708;2023-04-25T01:12:30;7.90;99.90
28438;DHT22;15667;52.376;9.708;2023-04-25T01:14:56;7.80;99.90
28438;DHT22;15667;52.376;9.708;2023-04-25T01:17:22;8.40;99.90
28438;DHT22;15667;52.376;9.708;2023-04-25T01:19:47;8.90;99.90
28438;DHT22;15667;52.376;9.708;2023-04-25T01:22:14;7.80;99.90
28438;DHT22;15667;52.376;9.708;2023-04-25T01:24:40;7.90;99.90
28438;DHT22;15667;52.376;9.708;2023-04-25T01:27:07;7.70;99.90
28438;DHT22;15667;52.376;9.708;2023-04-25T01:29:33;9.10;99.90
28438;DHT22;15667;52.376;9.708;2023-04-25T01:32:00;9.20;99.90
28438;DHT22;15667;52.376;9.708;2023-04-25T01:34:26;8.80;99.90
28438;DHT22;15667;52.376;9.708;2023-04-25T01:36:52;7.80;99.90
28438;DHT22;15667;52.376;9.708;2023-04-25T01:39:18;7.90;99.90
28438;DHT22;15667;52.376;9.708;2023-04-25T01:41:46;7.90;99.90
28438;DHT22;15667;52.376;9.708;2023-04-25T01:44:12;7.90;99.90
28438;DHT22;15667;52.376;9.708;2023-04-25T01:46:38;7.50;99.90
28438;DHT22;15667;52.376;9.708;2023-04-25T01:49:03;7.80;99.90
28438;DHT22;15667;52.376;9.708;2023-04-25T01:51:30;9.30;99.90
28438;DHT22;15667;52.376;9.708;2023-04-25T01:53:57;9.10;99.90
28438;DHT22;15667;52.376;9.708;2023-04-25T01:56:22;7.60;99.90
28438;DHT22;15667;52.376;9.708;2023-04-25T01:58:48;9.30;99.90
28438;DHT22;15667;52.376;9.708;2023-04-25T02:01:14;7.70;99.90
28438;DHT22;15667;52.376;9.708;2023-04-25T02:03:40;8.50;99.90
28438;DHT22;15667;52.376;9.708;2023-04-25T02:06:05;8.80;99.90
28438;DHT22;15667;52.376;9.708;2023-04-25T02:08:31;7.70;99.90
28438;DHT22;15667;52.376;9.708;2023-04-25T02:10:57;7.80;99.90
28438;DHT22;15667;52.376;9.708;2023-04-25T02:13:23;7.60;99.90
28438;DHT22;15667;52.376;9.708;2023-04-25T02:15:49;7.40;99.90
28438;DHT22;15667;52.376;9.708;2023-04-25T02:18:14;9.10;99.90
28438;DHT22;15667;52.376;9.708;2023-04-25T02:20:42;7.30;99.90
28438;DHT22;15667;52.376;9.708;2023-04-25T02:23:07;7.30;99.90
28438;DHT22;15667;52.376;9.708;2023-04-25T02:25:33;8.90;99.90
28438;DHT22;15667;52.376;9.708;2023-04-25T02:27:59;7.20;99.90
28438;DHT22;15667;52.376;9.708;2023-04-25T02:30:24;7.20;99.90
28438;DHT22;15667;52.376;9.708;2023-04-25T02:32:50;7.20;99.90
28438;DHT22;15667;52.376;9.708;2023-04-25T02:35:16;8.30;99.90
28438;DHT22;15667;52.376;9.708;2023-04-25T02:37:42;7.10;99.90
28438;DHT22;15667;52.376;9.708;2023-04-25T02:40:08;8.60;99.90
28438;DHT22;15667;52.376;9.708;2023-04-25T02:42:34;7.20;99.90
28438;DHT22;15667;52.376;9.708;2023-04-25T02:45:00;8.40;99.90
28438;DHT22;15667;52.376;9.708;2023-04-25T02:47:29;7.20;99.90
28438;DHT22;15667;52.376;9.708;2023-04-25T02:49:54;7.20;99.90
28438;DHT22;15667;52.376;9.708;2023-04-25T02:52:20;8.20;99.90
28438;DHT22;15667;52.376;9.708;2023-04-25T02:54:46;8.60;99.90
28438;DHT22;15667;52.376;9.708;2023-04-25T02:57:12;7.20;99.90
28438;DHT22;15667;52.376;9.708;2023-04-25T02:59:37;7.20;99.90
28438;DHT22;15667;52.376;9.708;2023-04-25T03:02:03;7.30;99.90
28438;DHT22;15667;52.376;9.708;2023-04-25T03:04:29;7.70;99.90
28438;DHT22;15667;52.376;9.708;2023-04-25T03:06:54;7.30;99.90
28438;DHT22;15667;52.376;9.708;2023-04-25T03:09:20;7.20;99.90
28438;DHT22;15667;52.376;9.708;2023-04-25T03:11:46;7.70;99.90
28438;DHT22;15667;52.376;9.708;2023-04-25T03:14:12;8.30;99.90
28438;DHT22;15667;52.376;9.708;2023-04-25T03:16:38;8.80;99.90
28438;DHT22;15667;52.376;9.708;2023-04-25T03:19:04;8.30;99.90
28438;DHT22;15667;52.376;9.708;2023-04-25T03:21:31;8.50;99.90
28438;DHT22;15667;52.376;9.708;2023-04-25T03:23:58;7.10;99.90
28438;DHT22;15667;52.376;9.708;2023-04-25T03:26:24;7.10;99.90
28438;DHT22;15667;52.376;9.708;2023-04-25T03:28:50;6.00;99.90
28438;DHT22;15667;52.376;9.708;2023-04-25T03:31:15;7.50;99.90
28438;DHT22;15667;52.376;9.708;2023-04-25T03:33:41;8.30;99.90
28438;DHT22;15667;52.376;9.708;2023-04-25T03:36:07;7.10;99.90
28438;DHT22;15667;52.376;9.708;2023-04-25T03:38:36;7.10;99.90
28438;DHT22;15667;52.376;9.708;2023-04-25T03:41:04;7.20;99.90
28438;DHT22;15667;52.376;9.708;2023-04-25T03:43:32;7.10;99.90
28438;DHT22;15667;52.376;9.708;2023-04-25T03:45:58;8.40;99.90
28438;DHT22;15667;52.376;9.708;2023-04-25T03:48:24;7.20;99.90
28438;DHT22;15667;52.376;9.708;2023-04-25T03:50:51;7.80;99.90
28438;DHT22;15667;52.376;9.708;2023-04-25T03:53:17;7.10;99.90
28438;DHT22;15667;52.376;9.708;2023-04-25T03:55:43;7.10;99.90
28438;DHT22;15667;52.376;9.708;2023-04-25T03:58:08;7.10;99.90
28438;DHT22;15667;52.376;9.708;2023-04-25T04:00:35;7.10;99.90
28438;DHT22;15667;52.376;9.708;2023-04-25T04:03:00;7.10;99.90
28438;DHT22;15667;52.376;9.708;2023-04-25T04:05:26;7.20;99.90
28438;DHT22;15667;52.376;9.708;2023-04-25T04:07:53;7.80;99.90
28438;DHT22;15667;52.376;9.708;2023-04-25T04:10:19;6.00;99.90
28438;DHT22;15667;52.376;9.708;2023-04-25T04:12:44;7.20;99.90
28438;DHT22;15667;52.376;9.708;2023-04-25T04:15:10;7.30;99.90
28438;DHT22;15667;52.376;9.708;2023-04-25T04:17:36;7.30;99.90
28438;DHT22;15667;52.376;9.708;2023-04-25T04:20:02;8.40;99.90
28438;DHT22;15667;52.376;9.708;2023-04-25T04:22:29;7.20;99.90
28438;DHT22;15667;52.376;9.708;2023-04-25T04:24:54;7.10;99.90
28438;DHT22;15667;52.376;9.708;2023-04-25T04:27:22;7.90;99.90
28438;DHT22;15667;52.376;9.708;2023-04-25T04:29:48;8.50;99.90
28438;DHT22;15667;52.376;9.708;2023-04-25T04:32:15;8.90;99.90
28438;DHT22;15667;52.376;9.708;2023-04-25T04:34:40;8.30;99.90
28438;DHT22;15667;52.376;9.708;2023-04-25T04:37:07;8.60;99.90
28438;DHT22;15667;52.376;9.708;2023-04-25T04:39:36;7.30;99.90
28438;DHT22;15667;52.376;9.708;2023-04-25T04:42:02;7.40;99.90
28438;DHT22;15667;52.376;9.708;2023-04-25T04:44:29;7.30;99.90
28438;DHT22;15667;52.376;9.708;2023-04-25T04:46:58;8.70;99.90
28438;DHT22;15667;52.376;9.708;2023-04-25T04:49:24;7.10;99.90
28438;DHT22;15667;52.376;9.708;2023-04-25T04:51:50;7.10;99.90
28438;DHT22;15667;52.376;9.708;2023-04-25T04:54:16;8.60;99.90
28438;DHT22;15667;52.376;9.708;2023-04-25T04:56:41;7.10;99.90
28438;DHT22;15667;52.376;9.708;2023-04-25T04:59:22;7.20;99.90
28438;DHT22;15667;52.376;9.708;2023-04-25T05:01:47;7.20;99.90
28438;DHT22;15667;52.376;9.708;2023-04-25T05:04:13;7.20;99.90
28438;DHT22;15667;52.376;9.708;2023-04-25T05:06:38;8.00;99.90
28438;DHT22;15667;52.376;9.708;2023-04-25T05:09:04;7.50;99.90
28438;DHT22;15667;52.376;9.708;2023-04-25T05:11:30;8.20;99.90
28438;DHT22;15667;52.376;9.708;2023-04-25T05:13:55;7.40;99.90
28438;DHT22;15667;52.376;9.708;2023-04-25T05:16:21;7.40;99.90
28438;DHT22;15667;52.376;9.708;2023-04-25T05:18:47;7.40;99.90
28438;DHT22;15667;52.376;9.708;2023-04-25T05:21:13;7.30;99.90
28438;DHT22;15667;52.376;9.708;2023-04-25T05:23:39;7.30;99.90
28438;DHT22;15667;52.376;9.708;2023-04-25T05:26:07;7.30;99.90
28438;DHT22;15667;52.376;9.708;2023-04-25T05:28:42;7.30;99.90
28438;DHT22;15667;52.376;9.708;2023-04-25T05:31:09;7.30;99.90
28438;DHT22;15667;52.376;9.708;2023-04-25T05:33:35;7.30;99.90
28438;DHT22;15667;52.376;9.708;2023-04-25T05:36:01;7.30;99.90
28438;DHT22;15667;52.376;9.708;2023-04-25T05:38:26;7.10;99.90
28438;DHT22;15667;52.376;9.708;2023-04-25T05:40:52;7.60;99.90
28438;DHT22;15667;52.376;9.708;2023-04-25T05:43:17;9.10;99.90
28438;DHT22;15667;52.376;9.708;2023-04-25T05:45:43;7.60;99.90
28438;DHT22;15667;52.376;9.708;2023-04-25T05:48:09;7.70;99.90
28438;DHT22;15667;52.376;9.708;2023-04-25T05:50:34;8.80;99.90
28438;DHT22;15667;52.376;9.708;2023-04-25T05:53:00;7.60;99.90
28438;DHT22;15667;52.376;9.708;2023-04-25T05:55:26;7.70;99.90
28438;DHT22;15667;52.376;9.708;2023-04-25T05:57:51;7.70;99.90
28438;DHT22;15667;52.376;9.708;2023-04-25T06:00:17;7.80;99.90
28438;DHT22;15667;52.376;9.708;2023-04-25T06:02:44;7.70;99.90
28438;DHT22;15667;52.376;9.708;2023-04-25T06:05:09;7.60;99.90
28438;DHT22;15667;52.376;9.708;2023-04-25T06:07:35;7.70;99.90
28438;DHT22;15667;52.376;9.708;2023-04-25T06:10:01;7.70;99.90
28438;DHT22;15667;52.376;9.708;2023-04-25T06:12:27;7.70;99.90
28438;DHT22;15667;52.376;9.708;2023-04-25T06:14:52;7.80;99.90
28438;DHT22;15667;52.376;9.708;2023-04-25T06:17:18;8.00;99.90
28438;DHT22;15667;52.376;9.708;2023-04-25T06:19:43;7.80;99.90
28438;DHT22;15667;52.376;9.708;2023-04-25T06:22:10;8.10;99.90
28438;DHT22;15667;52.376;9.708;2023-04-25T06:24:35;8.70;99.90
28438;DHT22;15667;52.376;9.708;2023-04-25T06:27:01;7.70;99.90
28438;DHT22;15667;52.376;9.708;2023-04-25T06:29:26;8.50;99.90
28438;DHT22;15667;52.376;9.708;2023-04-25T06:31:52;8.60;99.90
28438;DHT22;15667;52.376;9.708;2023-04-25T06:34:18;7.70;99.90
28438;DHT22;15667;52.376;9.708;2023-04-25T06:36:43;7.70;99.90
28438;DHT22;15667;52.376;9.708;2023-04-25T06:39:10;7.80;99.90
28438;DHT22;15667;52.376;9.708;2023-04-25T06:41:36;7.90;99.90
28438;DHT22;15667;52.376;9.708;2023-04-25T06:44:01;8.00;99.90
28438;DHT22;15667;52.376;9.708;2023-04-25T06:46:27;7.90;99.90
28438;DHT22;15667;52.376;9.708;2023-04-25T06:48:53;7.90;99.90
28438;DHT22;15667;52.376;9.708;2023-04-25T06:51:18;6.80;99.90
28438;DHT22;15667;52.376;9.708;2023-04-25T06:53:44;8.40;99.90
28438;DHT22;15667;52.376;9.708;2023-04-25T06:56:09;9.30;99.90
28438;DHT22;15667;52.376;9.708;2023-04-25T06:58:35;8.00;99.90
28438;DHT22;15667;52.376;9.708;2023-04-25T07:01:01;8.00;99.90
28438;DHT22;15667;52.376;9.708;2023-04-25T07:03:26;8.20;99.90
28438;DHT22;15667;52.376;9.708;2023-04-25T07:05:52;8.20;99.90
28438;DHT22;15667;52.376;9.708;2023-04-25T07:08:17;8.30;99.90
28438;DHT22;15667;52.376;9.708;2023-04-25T07:10:43;8.20;99.90
28438;DHT22;15667;52.376;9.708;2023-04-25T07:13:09;8.20;99.90
28438;DHT22;15667;52.376;9.708;2023-04-25T07:15:34;8.20;99.90
28438;DHT22;15667;52.376;9.708;2023-04-25T07:18:00;9.30;99.90
28438;DHT22;15667;52.376;9.708;2023-04-25T07:20:26;8.30;99.90
28438;DHT22;15667;52.376;9.708;2023-04-25T07:22:53;8.50;99.90
28438;DHT22;15667;52.376;9.708;2023-04-25T07:25:21;8.50;99.90
28438;DHT22;15667;52.376;9.708;2023-04-25T07:27:47;8.40;99.90
28438;DHT22;15667;52.376;9.708;2023-04-25T07:30:13;8.60;99.90
28438;DHT22;15667;52.376;9.708;2023-04-25T07:32:39;8.50;99.90
28438;DHT22;15667;52.376;9.708;2023-04-25T07:35:07;8.70;99.90
28438;DHT22;15667;52.376;9.708;2023-04-25T07:37:35;8.30;99.90
28438;DHT22;15667;52.376;9.708;2023-04-25T07:40:02;8.20;99.90
28438;DHT22;15667;52.376;9.708;2023-04-25T07:42:29;8.50;99.90
28438;DHT22;15667;52.376;9.708;2023-04-25T07:44:55;8.50;99.90
28438;DHT22;15667;52.376;9.708;2023-04-25T07:47:21;8.30;99.90
28438;DHT22;15667;52.376;9.708;2023-04-25T07:49:46;8.30;99.90
28438;DHT22;15667;52.376;9.708;2023-04-25T07:52:12;8.50;99.90
28438;DHT22;15667;52.376;9.708;2023-04-25T07:54:38;8.70;99.90
28438;DHT22;15667;52.376;9.708;2023-04-25T07:57:03;8.70;99.90
28438;DHT22;15667;52.376;9.708;2023-04-25T07:59:31;8.60;99.90
28438;DHT22;15667;52.376;9.708;2023-04-25T08:01:57;9.20;99.90
28438;DHT22;15667;52.376;9.708;2023-04-25T08:04:23;9.60;99.90
28438;DHT22;15667;52.376;9.708;2023-04-25T08:06:49;9.80;99.90
28438;DHT22;15667;52.376;9.708;2023-04-25T08:09:15;8.80;99.90
28438;DHT22;15667;52.376;9.708;2023-04-25T08:11:41;9.10;99.90
28438;DHT22;15667;52.376;9.708;2023-04-25T08:14:07;9.10;99.90
28438;DHT22;15667;52.376;9.708;2023-04-25T08:16:33;8.60;99.90
28438;DHT22;15667;52.376;9.708;2023-04-25T08:18:59;8.10;99.90
28438;DHT22;15667;52.376;9.708;2023-04-25T08:21:25;8.70;99.90
28438;DHT22;15667;52.376;9.708;2023-04-25T08:23:52;9.40;99.90
28438;DHT22;15667;52.376;9.708;2023-04-25T08:26:18;9.10;99.90
28438;DHT22;15667;52.376;9.708;2023-04-25T08:28:44;9.10;99.90
28438;DHT22;15667;52.376;9.708;2023-04-25T08:31:09;9.90;99.90
28438;DHT22;15667;52.376;9.708;2023-04-25T08:33:35;10.10;99.90
28438;DHT22;15667;52.376;9.708;2023-04-25T08:36:01;9.40;99.90
28438;DHT22;15667;52.376;9.708;2023-04-25T08:38:27;11.00;99.90
28438;DHT22;15667;52.376;9.708;2023-04-25T08:40:54;10.70;99.90
28438;DHT22;15667;52.376;9.708;2023-04-25T08:43:20;9.30;99.90
28438;DHT22;15667;52.376;9.708;2023-04-25T08:45:47;9.50;99.90
28438;DHT22;15667;52.376;9.708;2023-04-25T08:48:15;10.60;99.90
28438;DHT22;15667;52.376;9.708;2023-04-25T08:50:50;10.00;99.90
28438;DHT22;15667;52.376;9.708;2023-04-25T08:53:16;10.10;99.90
28438;DHT22;15667;52.376;9.708;2023-04-25T08:55:46;10.10;99.90
28438;DHT22;15667;52.376;9.708;2023-04-25T08:58:12;10.20;99.90
28438;DHT22;15667;52.376;9.708;2023-04-25T09:00:39;10.10;99.90
28438;DHT22;15667;52.376;9.708;2023-04-25T09:03:04;11.40;99.90
28438;DHT22;15667;52.376;9.708;2023-04-25T09:05:34;10.00;99.90
28438;DHT22;15667;52.376;9.708;2023-04-25T09:08:01;9.80;99.90
28438;DHT22;15667;52.376;9.708;2023-04-25T09:10:27;10.50;99.90
28438;DHT22;15667;52.376;9.708;2023-04-25T09:13:09;9.90;99.90
28438;DHT22;15667;52.376;9.708;2023-04-25T09:15:50;9.90;99.90
28438;DHT22;15667;52.376;9.708;2023-04-25T09:20:55;10.10;99.90
28438;DHT22;15667;52.376;9.708;2023-04-25T09:23:22;10.50;99.90
28438;DHT22;15667;52.376;9.708;2023-04-25T09:25:50;10.90;99.90
28438;DHT22;15667;52.376;9.708;2023-04-25T09:28:16;11.40;99.90
28438;DHT22;15667;52.376;9.708;2023-04-25T09:30:47;12.00;99.90
28438;DHT22;15667;52.376;9.708;2023-04-25T09:33:15;11.50;99.90
28438;DHT22;15667;52.376;9.708;2023-04-25T09:36:10;11.70;99.90
28438;DHT22;15667;52.376;9.708;2023-04-25T09:38:44;13.10;99.90
28438;DHT22;15667;52.376;9.708;2023-04-25T09:41:16;12.60;99.90
28438;DHT22;15667;52.376;9.708;2023-04-25T09:43:50;12.80;99.90
28438;DHT22;15667;52.376;9.708;2023-04-25T09:46:16;13.30;99.90
28438;DHT22;15667;52.376;9.708;2023-04-25T09:48:49;12.80;99.90
28438;DHT22;15667;52.376;9.708;2023-04-25T09:51:15;12.90;99.90
28438;DHT22;15667;52.376;9.708;2023-04-25T09:53:46;12.60;99.90
28438;DHT22;15667;52.376;9.708;2023-04-25T09:56:36;12.80;99.90
28438;DHT22;15667;52.376;9.708;2023-04-25T09:59:03;13.30;99.90
28438;DHT22;15667;52.376;9.708;2023-04-25T10:04:06;13.20;99.90
28438;DHT22;15667;52.376;9.708;2023-04-25T10:06:37;13.60;99.90
28438;DHT22;15667;52.376;9.708;2023-04-25T10:09:03;13.00;99.90
28438;DHT22;15667;52.376;9.708;2023-04-25T10:11:30;12.70;99.90
28438;DHT22;15667;52.376;9.708;2023-04-25T10:13:57;11.70;99.90
28438;DHT22;15667;52.376;9.708;2023-04-25T10:16:23;11.00;99.90
28438;DHT22;15667;52.376;9.708;2023-04-25T10:18:50;10.90;99.90
28438;DHT22;15667;52.376;9.708;2023-04-25T10:21:17;10.60;99.90
28438;DHT22;15667;52.376;9.708;2023-04-25T10:23:43;10.60;99.90
28438;DHT22;15667;52.376;9.708;2023-04-25T10:26:10;10.40;99.90
28438;DHT22;15667;52.376;9.708;2023-04-25T10:28:57;10.30;99.90
28438;DHT22;15667;52.376;9.708;2023-04-25T10:31:23;10.30;99.90
28438;DHT22;15667;52.376;9.708;2023-04-25T10:33:49;10.40;99.90
28438;DHT22;15667;52.376;9.708;2023-04-25T10:36:19;10.50;99.90
28438;DHT22;15667;52.376;9.708;2023-04-25T10:38:47;10.60;99.90
28438;DHT22;15667;52.376;9.708;2023-04-25T10:41:13;10.60;99.90
28438;DHT22;15667;52.376;9.708;2023-04-25T10:43:44;10.60;99.90
28438;DHT22;15667;52.376;9.708;2023-04-25T10:46:25;10.50;99.90
28438;DHT22;15667;52.376;9.708;2023-04-25T10:48:55;10.90;99.90
28438;DHT22;15667;52.376;9.708;2023-04-25T10:51:31;11.60;99.90
28438;DHT22;15667;52.376;9.708;2023-04-25T10:54:05;10.70;99.90
28438;DHT22;15667;52.376;9.708;2023-04-25T10:56:32;10.40;99.90
28438;DHT22;15667;52.376;9.708;2023-04-25T10:59:10;10.40;99.90
28438;DHT22;15667;52.376;9.708;2023-04-25T11:01:40;10.40;99.90
28438;DHT22;15667;52.376;9.708;2023-04-25T11:04:22;10.00;99.90
28438;DHT22;15667;52.376;9.708;2023-04-25T11:09:45;10.50;99.90
28438;DHT22;15667;52.376;9.708;2023-04-25T11:12:11;11.50;99.90
28438;DHT22;15667;52.376;9.708;2023-04-25T11:14:40;13.20;99.90
28438;DHT22;15667;52.376;9.708;2023-04-25T11:17:07;14.30;99.90
28438;DHT22;15667;52.376;9.708;2023-04-25T11:19:32;15.10;99.90
28438;DHT22;15667;52.376;9.708;2023-04-25T11:21:59;16.50;94.50
28438;DHT22;15667;52.376;9.708;2023-04-25T11:26:54;14.80;95.50
28438;DHT22;15667;52.376;9.708;2023-04-25T11:29:26;14.60;98.30
28438;DHT22;15667;52.376;9.708;2023-04-25T11:31:52;12.60;99.90
28438;DHT22;15667;52.376;9.708;2023-04-25T11:34:18;12.00;99.90
28438;DHT22;15667;52.376;9.708;2023-04-25T11:36:45;11.90;99.90
28438;DHT22;15667;52.376;9.708;2023-04-25T11:39:12;11.10;99.90
28438;DHT22;15667;52.376;9.708;2023-04-25T11:41:38;10.40;99.90
28438;DHT22;15667;52.376;9.708;2023-04-25T11:44:05;11.50;99.90
28438;DHT22;15667;52.376;9.708;2023-04-25T11:46:33;9.70;99.90
28438;DHT22;15667;52.376;9.708;2023-04-25T11:48:59;9.30;99.90
28438;DHT22;15667;52.376;9.708;2023-04-25T11:51:25;9.30;99.90
28438;DHT22;15667;52.376;9.708;2023-04-25T11:53:51;9.20;99.90
28438;DHT22;15667;52.376;9.708;2023-04-25T11:56:17;10.70;99.90
28438;DHT22;15667;52.376;9.708;2023-04-25T12:01:48;9.30;99.90
28438;DHT22;15667;52.376;9.708;2023-04-25T12:04:24;9.60;99.90
28438;DHT22;15667;52.376;9.708;2023-04-25T12:06:53;10.00;99.90
28438;DHT22;15667;52.376;9.708;2023-04-25T12:09:21;9.90;99.90
28438;DHT22;15667;52.376;9.708;2023-04-25T12:11:57;10.30;99.90
28438;DHT22;15667;52.376;9.708;2023-04-25T12:14:24;10.90;99.90
28438;DHT22;15667;52.376;9.708;2023-04-25T12:16:53;12.20;99.90
28438;DHT22;15667;52.376;9.708;2023-04-25T12:19:20;14.00;99.90
28438;DHT22;15667;52.376;9.708;2023-04-25T12:21:47;15.40;99.90
28438;DHT22;15667;52.376;9.708;2023-04-25T12:24:23;16.30;97.90
28438;DHT22;15667;52.376;9.708;2023-04-25T12:26:58;17.00;92.70
28438;DHT22;15667;52.376;9.708;2023-04-25T12:29:26;17.60;86.00
28438;DHT22;15667;52.376;9.708;2023-04-25T12:31:53;17.80;82.30
28438;DHT22;15667;52.376;9.708;2023-04-25T12:34:20;17.80;80.70
28438;DHT22;15667;52.376;9.708;2023-04-25T12:36:46;16.60;82.00
28438;DHT22;15667;52.376;9.708;2023-04-25T12:39:19;15.00;88.40
28438;DHT22;15667;52.376;9.708;2023-04-25T12:41:46;13.40;91.90
28438;DHT22;15667;52.376;9.708;2023-04-25T12:44:12;12.60;95.00
28438;DHT22;15667;52.376;9.708;2023-04-25T12:46:38;11.70;96.60
28438;DHT22;15667;52.376;9.708;2023-04-25T12:49:05;11.30;99.10
28438;DHT22;15667;52.376;9.708;2023-04-25T12:51:32;11.00;99.50
28438;DHT22;15667;52.376;9.708;2023-04-25T12:54:02;10.80;99.90
28438;DHT22;15667;52.376;9.708;2023-04-25T12:56:28;10.60;99.90
28438;DHT22;15667;52.376;9.708;2023-04-25T12:58:54;10.50;99.60
28438;DHT22;15667;52.376;9.708;2023-04-25T13:01:21;10.50;99.90
28438;DHT22;15667;52.376;9.708;2023-04-25T13:06:18;10.10;99.90
28438;DHT22;15667;52.376;9.708;2023-04-25T13:08:43;10.00;99.90
28438;DHT22;15667;52.376;9.708;2023-04-25T13:11:09;9.80;99.90
28438;DHT22;15667;52.376;9.708;2023-04-25T13:13:35;9.30;99.90
28438;DHT22;15667;52.376;9.708;2023-04-25T13:16:02;9.30;99.90
28438;DHT22;15667;52.376;9.708;2023-04-25T13:18:28;9.20;99.90
28438;DHT22;15667;52.376;9.708;2023-04-25T13:20:54;8.90;99.90
28438;DHT22;15667;52.376;9.708;2023-04-25T13:23:20;8.60;99.90
28438;DHT22;15667;52.376;9.708;2023-04-25T13:25:46;9.90;99.90
28438;DHT22;15667;52.376;9.708;2023-04-25T13:28:12;8.60;99.90
28438;DHT22;15667;52.376;9.708;2023-04-25T13:30:38;9.20;99.90
28438;DHT22;15667;52.376;9.708;2023-04-25T13:33:04;9.00;99.90
28438;DHT22;15667;52.376;9.708;2023-04-25T13:35:32;8.50;99.90
28438;DHT22;15667;52.376;9.708;2023-04-25T13:37:58;8.60;99.90
28438;DHT22;15667;52.376;9.708;2023-04-25T13:40:24;8.70;99.90
28438;DHT22;15667;52.376;9.708;2023-04-25T13:42:49;9.70;99.90
28438;DHT22;15667;52.376;9.708;2023-04-25T13:45:16;12.10;99.90
28438;DHT22;15667;52.376;9.708;2023-04-25T13:47:42;13.10;99.90
28438;DHT22;15667;52.376;9.708;2023-04-25T13:50:08;13.40;99.90
28438;DHT22;15667;52.376;9.708;2023-04-25T13:52:33;14.60;99.90
28438;DHT22;15667;52.376;9.708;2023-04-25T13:54:59;15.00;99.90
28438;DHT22;15667;52.376;9.708;2023-04-25T13:57:25;14.00;99.90
28438;DHT22;15667;52.376;9.708;2023-04-25T13:59:51;13.30;99.90
28438;DHT22;15667;52.376;9.708;2023-04-25T14:02:18;12.20;99.90
28438;DHT22;15667;52.376;9.708;2023-04-25T14:04:43;10.70;99.90
28438;DHT22;15667;52.376;9.708;2023-04-25T14:07:09;10.30;99.90
28438;DHT22;15667;52.376;9.708;2023-04-25T14:09:36;9.90;99.90
28438;DHT22;15667;52.376;9.708;2023-04-25T14:12:02;10.30;99.90
28438;DHT22;15667;52.376;9.708;2023-04-25T14:14:28;9.20;99.90
28438;DHT22;15667;52.376;9.708;2023-04-25T14:16:54;9.30;99.90
28438;DHT22;15667;52.376;9.708;2023-04-25T14:19:20;11.20;99.90
28438;DHT22;15667;52.376;9.708;2023-04-25T14:21:46;10.90;99.90
28438;DHT22;15667;52.376;9.708;2023-04-25T14:24:12;10.60;99.90
28438;DHT22;15667;52.376;9.708;2023-04-25T14:26:38;10.60;99.90
28438;DHT22;15667;52.376;9.708;2023-04-25T14:29:05;11.70;99.90
28438;DHT22;15667;52.376;9.708;2023-04-25T14:31:33;13.40;99.90
28438;DHT22;15667;52.376;9.708;2023-04-25T14:33:58;13.70;99.90
28438;DHT22;15667;52.376;9.708;2023-04-25T14:36:24;14.70;99.90
28438;DHT22;15667;52.376;9.708;2023-04-25T14:38:51;15.00;99.90
28438;DHT22;15667;52.376;9.708;2023-04-25T14:41:17;16.70;99.90
28438;DHT22;15667;52.376;9.708;2023-04-25T14:43:43;16.90;99.90
28438;DHT22;15667;52.376;9.708;2023-04-25T14:46:10;16.60;99.90
28438;DHT22;15667;52.376;9.708;2023-04-25T14:48:36;16.70;99.90
28438;DHT22;15667;52.376;9.708;2023-04-25T14:51:01;16.80;99.90
28438;DHT22;15667;52.376;9.708;2023-04-25T14:53:27;15.90;99.90
28438;DHT22;15667;52.376;9.708;2023-04-25T14:55:53;15.40;99.90
28438;DHT22;15667;52.376;9.708;2023-04-25T14:58:19;13.30;99.90
28438;DHT22;15667;52.376;9.708;2023-04-25T15:00:45;12.20;99.90
28438;DHT22;15667;52.376;9.708;2023-04-25T15:03:11;11.80;99.90
28438;DHT22;15667;52.376;9.708;2023-04-25T15:05:38;11.60;99.90
28438;DHT22;15667;52.376;9.708;2023-04-25T15:08:05;10.90;99.90
28438;DHT22;15667;52.376;9.708;2023-04-25T15:10:31;10.30;99.90
28438;DHT22;15667;52.376;9.708;2023-04-25T15:12:57;9.60;99.90
28438;DHT22;15667;52.376;9.708;2023-04-25T15:15:22;10.80;99.90
28438;DHT22;15667;52.376;9.708;2023-04-25T15:17:49;10.40;99.90
28438;DHT22;15667;52.376;9.708;2023-04-25T15:20:14;8.60;99.90
28438;DHT22;15667;52.376;9.708;2023-04-25T15:22:42;9.60;99.90
28438;DHT22;15667;52.376;9.708;2023-04-25T15:25:10;8.40;99.90
28438;DHT22;15667;52.376;9.708;2023-04-25T15:27:36;8.60;99.90
28438;DHT22;15667;52.376;9.708;2023-04-25T15:30:09;9.50;99.90
28438;DHT22;15667;52.376;9.708;2023-04-25T15:32:45;9.40;99.90
28438;DHT22;15667;52.376;9.708;2023-04-25T15:35:12;10.40;99.90
28438;DHT22;15667;52.376;9.708;2023-04-25T15:37:39;11.90;99.90
28438;DHT22;15667;52.376;9.708;2023-04-25T15:40:13;11.90;99.90
28438;DHT22;15667;52.376;9.708;2023-04-25T15:42:41;11.40;99.90
28438;DHT22;15667;52.376;9.708;2023-04-25T15:45:08;10.90;99.90
28438;DHT22;15667;52.376;9.708;2023-04-25T15:47:36;10.40;99.90
28438;DHT22;15667;52.376;9.708;2023-04-25T15:50:03;10.40;99.90
28438;DHT22;15667;52.376;9.708;2023-04-25T15:52:29;10.50;99.90
28438;DHT22;15667;52.376;9.708;2023-04-25T15:54:55;10.50;99.90